Time;durP1;ratioP1;P1;durP2;ratioP2;P2;SDS_P1;SDS_P2;PMS_P1;PMS_P2;Temp;Humidity;BMP_temperature;BMP_pressure;BME280_temperature;BME280_humidity;BME280_pressure;Samples;Min_cycle;Max_cycle;Signal;HPM_P1;HPM_P2
2023/05/24 00:02:13;;;;;;;24.20;7.85;;;;;;;;;;10151914;28;20683;-65
2023/05/24 00:07:09;;;;;;;25.27;8.93;;;;;;;;;;10137902;28;20054;-66
2023/05/24 00:12:06;;;;;;;22.75;7.60;;;;;;;;;;10144334;28;20393;-66
2023/05/24 00:17:02;;;;;;;28.65;8.52;;;;;;;;;;10148511;28;20095;-66
2023/05/24 00:21:59;;;;;;;24.65;9.13;;;;;;;;;;10140545;28;20050;-66
2023/05/24 00:26:55;;;;;;;25.52;8.20;;;;;;;;;;10139927;28;20444;-66
2023/05/24 00:31:51;;;;;;;27.48;8.45;;;;;;;;;;10137245;28;20381;-67
2023/05/24 00:36:48;;;;;;;29.83;8.30;;;;;;;;;;10139054;28;20047;-65
2023/05/24 00:41:44;;;;;;;23.10;7.45;;;;;;;;;;10152528;28;20046;-65
2023/05/24 00:46:41;;;;;;;28.27;9.18;;;;;;;;;;10151572;28;20070;-66
2023/05/24 00:51:37;;;;;;;25.13;7.93;;;;;;;;;;10146485;28;20109;-65
2023/05/24 00:56:34;;;;;;;24.85;8.57;;;;;;;;;;10140401;28;20130;-65
2023/05/24 01:01:30;;;;;;;28.20;8.95;;;;;;;;;;10141935;28;20140;-65
2023/05/24 01:06:31;;;;;;;34.88;8.80;;;;;;;;;;10132552;28;20491;-66
2023/05/24 01:11:34;;;;;;;33.60;8.40;;;;;;;;;;10145960;28;20042;-66
2023/05/24 01:16:40;;;;;;;28.67;8.25;;;;;;;;;;10138543;28;20049;-64
2023/05/24 01:21:49;;;;;;;34.65;10.07;;;;;;;;;;10140139;28;20058;-64
2023/05/24 01:27:04;;;;;;;26.45;9.30;;;;;;;;;;10133513;28;20057;-64
2023/05/24 01:32:01;;;;;;;20.58;7.03;;;;;;;;;;10139784;28;20046;-64
2023/05/24 01:36:57;;;;;;;36.17;9.85;;;;;;;;;;10138221;28;20069;-65
2023/05/24 01:42:03;;;;;;;26.80;7.95;;;;;;;;;;10141039;28;20423;-65
2023/05/24 01:47:15;;;;;;;27.70;7.93;;;;;;;;;;10145622;28;20042;-64
2023/05/24 01:52:14;;;;;;;36.33;9.35;;;;;;;;;;10151252;28;20085;-65
2023/05/24 01:57:11;;;;;;;38.63;9.77;;;;;;;;;;10146837;28;20042;-64
2023/05/24 02:02:07;;;;;;;34.50;9.70;;;;;;;;;;10135221;28;20055;-64
2023/05/24 02:07:04;;;;;;;25.38;8.18;;;;;;;;;;10135170;28;20053;-64
2023/05/24 02:12:01;;;;;;;24.35;9.63;;;;;;;;;;10129291;28;20050;-64
2023/05/24 02:16:57;;;;;;;31.58;8.18;;;;;;;;;;10141784;28;20085;-64
2023/05/24 02:21:54;;;;;;;29.67;10.55;;;;;;;;;;10138453;28;20569;-64
2023/05/24 02:26:51;;;;;;;23.40;9.10;;;;;;;;;;10127138;28;20051;-64
2023/05/24 02:31:50;;;;;;;31.95;9.43;;;;;;;;;;10124209;28;20046;-64
2023/05/24 02:36:47;;;;;;;23.45;9.70;;;;;;;;;;10129164;28;20046;-66
2023/05/24 02:41:43;;;;;;;31.83;9.32;;;;;;;;;;10132812;28;20054;-65
2023/05/24 02:46:40;;;;;;;23.90;8.85;;;;;;;;;;10130194;28;20044;-66
2023/05/24 02:51:36;;;;;;;32.58;9.27;;;;;;;;;;10138490;28;20043;-66
2023/05/24 02:56:33;;;;;;;29.48;10.07;;;;;;;;;;10129313;28;20055;-65
2023/05/24 03:01:30;;;;;;;37.20;10.40;;;;;;;;;;10143479;28;20068;-65
2023/05/24 03:06:26;;;;;;;26.67;9.95;;;;;;;;;;10131298;28;20065;-63
2023/05/24 03:11:22;;;;;;;25.00;9.20;;;;;;;;;;10126809;28;20111;-64
2023/05/24 03:16:19;;;;;;;32.13;10.00;;;;;;;;;;10136046;28;20054;-65
2023/05/24 03:21:19;;;;;;;25.63;9.40;;;;;;;;;;10132349;28;20206;-65
2023/05/24 03:26:19;;;;;;;16.15;7.90;;;;;;;;;;10137197;28;20054;-65
2023/05/24 03:31:16;;;;;;;23.08;9.77;;;;;;;;;;10150201;28;20419;-64
2023/05/24 03:36:12;;;;;;;31.23;9.48;;;;;;;;;;10127848;28;20046;-70
2023/05/24 03:41:09;;;;;;;33.75;9.65;;;;;;;;;;10127654;28;20125;-70
2023/05/24 03:46:05;;;;;;;23.35;10.02;;;;;;;;;;10123327;28;20117;-69
2023/05/24 03:51:02;;;;;;;33.42;9.55;;;;;;;;;;10138784;28;20682;-70
2023/05/24 03:55:59;;;;;;;28.50;10.98;;;;;;;;;;10125813;28;20140;-69
2023/05/24 04:00:55;;;;;;;25.15;10.25;;;;;;;;;;10141276;28;20073;-69
2023/05/24 04:05:52;;;;;;;26.77;9.38;;;;;;;;;;10126653;28;20509;-69
2023/05/24 04:10:48;;;;;;;30.83;11.95;;;;;;;;;;10125859;28;20426;-69
2023/05/24 04:15:45;;;;;;;33.28;12.38;;;;;;;;;;10136776;28;20050;-68
2023/05/24 04:20:41;;;;;;;31.77;11.15;;;;;;;;;;10137940;28;20050;-70
2023/05/24 04:25:38;;;;;;;25.63;11.20;;;;;;;;;;10138275;28;20055;-70
2023/05/24 04:30:35;;;;;;;29.05;12.40;;;;;;;;;;10147989;28;20058;-70
2023/05/24 04:35:32;;;;;;;45.67;13.35;;;;;;;;;;10144581;28;20058;-71
2023/05/24 04:40:28;;;;;;;23.25;11.70;;;;;;;;;;10136397;28;20080;-72
2023/05/24 04:45:25;;;;;;;36.33;13.43;;;;;;;;;;10139478;28;20055;-71
2023/05/24 04:50:21;;;;;;;27.02;12.52;;;;;;;;;;10145445;28;20053;-70
2023/05/24 04:55:17;;;;;;;29.38;13.50;;;;;;;;;;10135255;28;20086;-70
2023/05/24 05:00:14;;;;;;;35.10;14.02;;;;;;;;;;10137040;28;20459;-69
2023/05/24 05:05:11;;;;;;;27.08;12.90;;;;;;;;;;10140147;28;20067;-69
2023/05/24 05:10:08;;;;;;;24.52;12.95;;;;;;;;;;10136192;28;20053;-69
2023/05/24 05:15:05;;;;;;;27.10;14.05;;;;;;;;;;10141650;28;20530;-69
2023/05/24 05:20:02;;;;;;;29.23;14.02;;;;;;;;;;10147189;28;20716;-69
2023/05/24 05:24:59;;;;;;;25.08;12.13;;;;;;;;;;10149983;28;20500;-69
2023/05/24 05:29:55;;;;;;;25.30;13.07;;;;;;;;;;10144790;28;20088;-69
2023/05/24 05:34:51;;;;;;;24.85;13.77;;;;;;;;;;10134664;28;20046;-69
2023/05/24 05:39:48;;;;;;;29.60;13.90;;;;;;;;;;10143642;28;20038;-70
2023/05/24 05:44:44;;;;;;;30.30;13.00;;;;;;;;;;10139554;28;20485;-69
2023/05/24 05:49:40;;;;;;;31.60;13.63;;;;;;;;;;10138751;28;20066;-69
2023/05/24 05:54:36;;;;;;;24.70;15.05;;;;;;;;;;10139515;28;20508;-69
2023/05/24 05:59:34;;;;;;;31.23;13.20;;;;;;;;;;10142231;28;20603;-69
2023/05/24 06:04:31;;;;;;;29.50;12.15;;;;;;;;;;10136232;28;20420;-69
2023/05/24 06:09:27;;;;;;;34.67;14.35;;;;;;;;;;10130723;28;20042;-69
2023/05/24 06:14:24;;;;;;;43.47;15.43;;;;;;;;;;10135393;28;20078;-69
2023/05/24 06:19:20;;;;;;;31.60;13.20;;;;;;;;;;10134253;28;20706;-70
2023/05/24 06:24:20;;;;;;;34.95;13.07;;;;;;;;;;10141205;28;20108;-70
2023/05/24 06:29:20;;;;;;;41.33;13.98;;;;;;;;;;10134447;28;20046;-69
2023/05/24 06:34:19;;;;;;;33.38;14.48;;;;;;;;;;10135281;28;20117;-69
2023/05/24 06:39:16;;;;;;;34.10;13.50;;;;;;;;;;10132015;28;20424;-69
2023/05/24 06:44:13;;;;;;;37.75;14.20;;;;;;;;;;10132599;28;20058;-70
2023/05/24 06:49:09;;;;;;;36.42;15.85;;;;;;;;;;10134108;28;20050;-70
2023/05/24 06:54:05;;;;;;;30.55;13.38;;;;;;;;;;10130490;28;20093;-70
2023/05/24 06:59:01;;;;;;;25.48;13.05;;;;;;;;;;10138912;28;20456;-70
2023/05/24 07:03:58;;;;;;;30.17;12.98;;;;;;;;;;10133006;28;20181;-70
2023/05/24 07:08:54;;;;;;;26.58;11.85;;;;;;;;;;10141992;28;20416;-70
2023/05/24 07:13:51;;;;;;;40.65;12.52;;;;;;;;;;10139024;28;20053;-69
2023/05/24 07:18:47;;;;;;;29.58;11.90;;;;;;;;;;10131430;28;20069;-74
2023/05/24 07:23:43;;;;;;;29.48;12.95;;;;;;;;;;10136077;28;20054;-74
2023/05/24 07:28:40;;;;;;;31.27;11.82;;;;;;;;;;10131916;28;20512;-74
2023/05/24 07:33:37;;;;;;;29.45;12.25;;;;;;;;;;10147016;28;20530;-74
2023/05/24 07:38:33;;;;;;;40.30;12.93;;;;;;;;;;10135748;28;20042;-74
2023/05/24 07:43:32;;;;;;;30.65;12.98;;;;;;;;;;10139608;28;20046;-74
2023/05/24 07:48:28;;;;;;;33.88;13.85;;;;;;;;;;10139392;28;20046;-74
2023/05/24 07:53:25;;;;;;;32.13;12.57;;;;;;;;;;10134027;28;20773;-74
2023/05/24 07:58:21;;;;;;;40.60;14.20;;;;;;;;;;10136170;28;20462;-74
2023/05/24 08:03:17;;;;;;;38.47;14.10;;;;;;;;;;10146966;28;20054;-74
2023/05/24 08:08:14;;;;;;;35.22;14.43;;;;;;;;;;10138770;28;20057;-74
2023/05/24 08:13:10;;;;;;;40.95;15.52;;;;;;;;;;10143662;28;20101;-74
2023/05/24 08:18:08;;;;;;;33.42;14.77;;;;;;;;;;10143962;28;20057;-75
2023/05/24 08:23:05;;;;;;;31.52;14.10;;;;;;;;;;10152342;28;20051;-74
2023/05/24 08:28:01;;;;;;;32.55;13.98;;;;;;;;;;10153116;28;20177;-75
2023/05/24 08:32:57;;;;;;;26.48;13.30;;;;;;;;;;10142063;28;20066;-75
2023/05/24 08:37:56;;;;;;;31.73;12.75;;;;;;;;;;10136374;28;20046;-75
2023/05/24 08:42:54;;;;;;;27.52;12.23;;;;;;;;;;10136989;28;20500;-74
2023/05/24 08:47:50;;;;;;;35.67;12.90;;;;;;;;;;10148774;28;20133;-75
2023/05/24 08:52:47;;;;;;;29.60;13.13;;;;;;;;;;10144943;28;20038;-75
2023/05/24 08:57:44;;;;;;;33.33;12.77;;;;;;;;;;10127259;28;20125;-75
2023/05/24 09:02:42;;;;;;;29.88;13.25;;;;;;;;;;10142262;28;20097;-75
2023/05/24 09:07:40;;;;;;;29.88;11.98;;;;;;;;;;10138752;28;20638;-75
2023/05/24 09:12:38;;;;;;;25.02;11.70;;;;;;;;;;10150985;28;20504;-75
2023/05/24 09:17:35;;;;;;;20.25;10.23;;;;;;;;;;10145693;28;20046;-75
2023/05/24 09:22:33;;;;;;;15.10;9.73;;;;;;;;;;10146490;28;20047;-75
2023/05/24 09:27:35;;;;;;;22.70;9.60;;;;;;;;;;10147251;28;20043;-75
2023/05/24 09:32:34;;;;;;;23.25;9.95;;;;;;;;;;10141020;28;20047;-75
2023/05/24 09:37:31;;;;;;;18.02;8.65;;;;;;;;;;10135327;28;20409;-75
2023/05/24 09:42:29;;;;;;;17.52;9.32;;;;;;;;;;10132896;28;20141;-75
2023/05/24 09:47:28;;;;;;;17.67;8.77;;;;;;;;;;10135751;28;20600;-75
2023/05/24 09:52:25;;;;;;;15.40;8.70;;;;;;;;;;10133222;28;20070;-75
2023/05/24 09:57:21;;;;;;;23.88;11.82;;;;;;;;;;10148658;28;20049;-75
2023/05/24 10:02:20;;;;;;;19.55;9.43;;;;;;;;;;10137435;28;20054;-75
2023/05/24 10:07:17;;;;;;;18.00;10.60;;;;;;;;;;10137160;28;20051;-75
2023/05/24 10:12:14;;;;;;;19.27;9.05;;;;;;;;;;10141760;28;20086;-75
2023/05/24 10:17:10;;;;;;;21.65;8.77;;;;;;;;;;10135186;28;20505;-75
2023/05/24 10:22:08;;;;;;;14.07;8.98;;;;;;;;;;10145822;28;20038;-75
2023/05/24 10:27:08;;;;;;;19.58;10.45;;;;;;;;;;10136498;28;20038;-75
2023/05/24 10:32:05;;;;;;;24.02;10.38;;;;;;;;;;10144831;28;20093;-75
2023/05/24 10:37:01;;;;;;;26.38;10.35;;;;;;;;;;10141232;28;20100;-75
2023/05/24 10:42:01;;;;;;;24.42;11.13;;;;;;;;;;10142808;28;20137;-75
2023/05/24 10:47:10;;;;;;;17.80;9.52;;;;;;;;;;10130576;28;20043;-75
2023/05/24 10:52:08;;;;;;;21.55;9.45;;;;;;;;;;10133262;28;20038;-75
2023/05/24 10:57:05;;;;;;;17.52;9.48;;;;;;;;;;10138199;28;20137;-75
2023/05/24 11:02:03;;;;;;;18.92;9.02;;;;;;;;;;10141730;28;20078;-75
2023/05/24 11:07:00;;;;;;;18.08;8.77;;;;;;;;;;10138592;28;20061;-75
2023/05/24 11:12:06;;;;;;;13.57;8.73;;;;;;;;;;10133469;28;20500;-75
2023/05/24 11:17:20;;;;;;;;;;;;;;;;;;10136600;28;20081;-74
2023/05/24 11:22:19;;;;;;;14.60;8.60;;;;;;;;;;10143813;28;19922;-74
2023/05/24 11:27:15;;;;;;;13.60;8.40;;;;;;;;;;10143340;28;20093;-75
2023/05/24 11:32:15;;;;;;;16.38;8.68;;;;;;;;;;10139215;28;20438;-74
2023/05/24 11:37:12;;;;;;;13.90;8.57;;;;;;;;;;10152901;28;20554;-75
2023/05/24 11:42:13;;;;;;;13.32;8.57;;;;;;;;;;10152870;28;20050;-75
2023/05/24 11:47:11;;;;;;;15.25;8.27;;;;;;;;;;10164442;28;20555;-75
2023/05/24 11:52:08;;;;;;;19.88;9.60;;;;;;;;;;10144331;28;20042;-75
2023/05/24 11:57:11;;;;;;;18.67;9.35;;;;;;;;;;10133025;28;20062;-75
2023/05/24 12:02:07;;;;;;;12.88;8.38;;;;;;;;;;10139163;28;20101;-74
2023/05/24 12:07:09;;;;;;;13.25;8.35;;;;;;;;;;10139948;28;20069;-74
2023/05/24 12:12:06;;;;;;;15.03;9.10;;;;;;;;;;10140374;28;20501;-74
2023/05/24 12:17:02;;;;;;;15.15;9.00;;;;;;;;;;10134091;28;20073;-74
2023/05/24 12:21:59;;;;;;;14.48;8.15;;;;;;;;;;10136167;28;20047;-74
2023/05/24 12:27:02;;;;;;;19.13;8.30;;;;;;;;;;10142084;28;20039;-74
2023/05/24 12:31:58;;;;;;;14.48;8.27;;;;;;;;;;10147677;28;20528;-74
2023/05/24 12:36:55;;;;;;;9.98;7.68;;;;;;;;;;10139864;28;20174;-74
2023/05/24 12:41:54;;;;;;;16.85;8.60;;;;;;;;;;10134436;28;20106;-74
2023/05/24 12:46:52;;;;;;;18.48;9.77;;;;;;;;;;10147799;28;20712;-74
2023/05/24 12:51:56;;;;;;;15.57;8.95;;;;;;;;;;10151177;28;20049;-74
2023/05/24 12:56:53;;;;;;;20.70;9.65;;;;;;;;;;10135139;28;20150;-74
2023/05/24 13:01:52;;;;;;;16.80;7.93;;;;;;;;;;10145865;28;20046;-74
2023/05/24 13:06:49;;;;;;;18.27;8.93;;;;;;;;;;10126584;28;20053;-74
2023/05/24 13:11:48;;;;;;;14.02;8.63;;;;;;;;;;10143046;28;20057;-74
2023/05/24 13:16:44;;;;;;;15.07;8.10;;;;;;;;;;10147863;28;20104;-74
2023/05/24 13:21:41;;;;;;;13.88;8.95;;;;;;;;;;10140342;28;20046;-74
2023/05/24 13:26:37;;;;;;;19.65;9.40;;;;;;;;;;10143874;28;20109;-74
2023/05/24 13:31:36;;;;;;;13.15;8.90;;;;;;;;;;10140154;28;20050;-74
2023/05/24 13:36:39;;;;;;;16.23;8.68;;;;;;;;;;10142671;28;20128;-75
2023/05/24 13:41:35;;;;;;;16.17;10.02;;;;;;;;;;10139235;28;20090;-75
2023/05/24 13:46:32;;;;;;;16.95;10.65;;;;;;;;;;10140502;28;20068;-75
2023/05/24 13:51:29;;;;;;;13.18;8.30;;;;;;;;;;10129272;28;20129;-75
2023/05/24 13:56:31;;;;;;;12.82;9.07;;;;;;;;;;10137408;28;20078;-75
2023/05/24 14:01:29;;;;;;;16.20;9.73;;;;;;;;;;10135356;28;20051;-75
2023/05/24 14:06:26;;;;;;;15.82;9.73;;;;;;;;;;10127746;28;20520;-75
2023/05/24 14:11:23;;;;;;;13.55;9.90;;;;;;;;;;10142309;28;20386;-75
2023/05/24 14:16:20;;;;;;;17.80;10.50;;;;;;;;;;10137719;28;20651;-75
2023/05/24 14:21:20;;;;;;;15.85;9.20;;;;;;;;;;10144408;28;20093;-75
2023/05/24 14:26:17;;;;;;;12.93;9.68;;;;;;;;;;10141535;28;20049;-75
2023/05/24 14:31:14;;;;;;;17.60;9.38;;;;;;;;;;10136814;28;20058;-75
2023/05/24 14:36:10;;;;;;;18.10;9.73;;;;;;;;;;10130796;28;20046;-75
2023/05/24 14:41:08;;;;;;;20.02;11.40;;;;;;;;;;10143040;28;20131;-75
2023/05/24 14:46:04;;;;;;;13.55;9.13;;;;;;;;;;10135928;28;20051;-75
2023/05/24 14:51:00;;;;;;;20.15;11.10;;;;;;;;;;10138893;28;20082;-75
2023/05/24 14:55:57;;;;;;;23.35;10.65;;;;;;;;;;10147950;28;20100;-75
2023/05/24 15:00:53;;;;;;;25.27;11.00;;;;;;;;;;10133309;28;20053;-75
2023/05/24 15:05:51;;;;;;;22.33;11.55;;;;;;;;;;10140030;28;20050;-76
2023/05/24 15:10:47;;;;;;;23.45;11.25;;;;;;;;;;10141662;28;20779;-75
2023/05/24 15:15:43;;;;;;;18.20;10.65;;;;;;;;;;10132044;28;20491;-77
2023/05/24 15:20:40;;;;;;;22.15;11.77;;;;;;;;;;10145726;28;20636;-76
2023/05/24 15:25:37;;;;;;;21.67;11.85;;;;;;;;;;10132686;28;20081;-76
2023/05/24 15:30:33;;;;;;;22.60;11.00;;;;;;;;;;10136772;28;20077;-76
2023/05/24 15:35:30;;;;;;;15.73;10.60;;;;;;;;;;10135924;28;20456;-75
2023/05/24 15:40:26;;;;;;;20.67;11.65;;;;;;;;;;10136370;28;20937;-74
2023/05/24 15:45:22;;;;;;;19.05;10.85;;;;;;;;;;10130176;28;20057;-72
2023/05/24 15:50:19;;;;;;;19.52;10.88;;;;;;;;;;10135768;28;20051;-75
2023/05/24 15:55:32;;;;;;;21.33;10.18;;;;;;;;;;10137955;28;20049;-75
2023/05/24 16:00:29;;;;;;;20.90;11.98;;;;;;;;;;10129900;28;20047;-74
2023/05/24 16:05:27;;;;;;;16.65;10.82;;;;;;;;;;10142792;28;20050;-74
2023/05/24 16:10:26;;;;;;;19.40;10.25;;;;;;;;;;10127599;28;20386;-74
2023/05/24 16:15:22;;;;;;;17.35;11.30;;;;;;;;;;10137098;28;20050;-75
2023/05/24 16:20:18;;;;;;;20.70;11.75;;;;;;;;;;10143758;28;20664;-75
2023/05/24 16:25:15;;;;;;;19.77;10.90;;;;;;;;;;10138895;28;20081;-74
2023/05/24 16:30:11;;;;;;;19.13;11.15;;;;;;;;;;10135644;28;20042;-74
2023/05/24 16:35:08;;;;;;;20.83;10.68;;;;;;;;;;10144490;28;20511;-74
2023/05/24 16:40:06;;;;;;;21.30;11.00;;;;;;;;;;10139553;28;20059;-74
2023/05/24 16:45:02;;;;;;;18.02;9.60;;;;;;;;;;10136469;28;20061;-73
2023/05/24 16:49:58;;;;;;;18.02;9.93;;;;;;;;;;10154394;28;20657;-75
2023/05/24 16:54:55;;;;;;;19.40;11.13;;;;;;;;;;10150608;28;20061;-72
2023/05/24 16:59:51;;;;;;;20.27;9.60;;;;;;;;;;10133267;28;20569;-72
2023/05/24 17:04:48;;;;;;;18.63;9.63;;;;;;;;;;10140523;28;20085;-72
2023/05/24 17:09:45;;;;;;;26.88;11.15;;;;;;;;;;10132053;28;20097;-72
2023/05/24 17:14:41;;;;;;;23.77;9.70;;;;;;;;;;10142154;28;20050;-72
2023/05/24 17:19:38;;;;;;;22.40;11.07;;;;;;;;;;10129342;28;20059;-72
2023/05/24 17:24:37;;;;;;;23.05;11.10;;;;;;;;;;10139558;28;20504;-72
2023/05/24 17:29:36;;;;;;;23.13;10.23;;;;;;;;;;10140368;28;20049;-72
2023/05/24 17:34:32;;;;;;;15.85;9.05;;;;;;;;;;10144260;28;20054;-73
2023/05/24 17:39:31;;;;;;;22.05;10.85;;;;;;;;;;10143978;28;20054;-72
2023/05/24 17:44:27;;;;;;;17.42;10.27;;;;;;;;;;10137684;28;20093;-71
2023/05/24 17:49:23;;;;;;;24.77;10.60;;;;;;;;;;10130043;28;20039;-72
2023/05/24 17:54:21;;;;;;;25.77;11.32;;;;;;;;;;10146695;28;20039;-72
2023/05/24 17:59:17;;;;;;;22.80;12.27;;;;;;;;;;10139626;28;20058;-72
2023/05/24 18:04:14;;;;;;;19.58;10.38;;;;;;;;;;10144646;28;20468;-72
2023/05/24 18:09:12;;;;;;;18.48;9.05;;;;;;;;;;10137861;28;20042;-72
2023/05/24 18:14:08;;;;;;;17.40;10.52;;;;;;;;;;10139554;28;20051;-72
2023/05/24 18:19:04;;;;;;;18.80;10.35;;;;;;;;;;10125867;28;20047;-71
2023/05/24 18:24:01;;;;;;;21.23;11.40;;;;;;;;;;10150394;28;20823;-71
2023/05/24 18:28:57;;;;;;;20.02;10.30;;;;;;;;;;10146229;28;20050;-72
2023/05/24 18:33:53;;;;;;;21.00;10.07;;;;;;;;;;10141256;28;20092;-72
2023/05/24 18:38:50;;;;;;;18.42;11.20;;;;;;;;;;10138603;28;20047;-72
2023/05/24 18:43:46;;;;;;;23.23;11.00;;;;;;;;;;10142328;28;20035;-72
2023/05/24 18:48:43;;;;;;;19.38;10.52;;;;;;;;;;10131278;28;20153;-72
2023/05/24 18:53:40;;;;;;;23.23;10.93;;;;;;;;;;10137832;28;20038;-71
2023/05/24 18:58:36;;;;;;;23.13;10.60;;;;;;;;;;10135625;28;20086;-72
2023/05/24 19:03:32;;;;;;;23.95;13.93;;;;;;;;;;10143200;28;20058;-71
2023/05/24 19:08:29;;;;;;;19.52;10.45;;;;;;;;;;10139656;28;20221;-72
2023/05/24 19:13:26;;;;;;;23.73;11.80;;;;;;;;;;10130060;28;20050;-72
2023/05/24 19:18:22;;;;;;;24.88;10.98;;;;;;;;;;10126479;28;20042;-72
2023/05/24 19:23:18;;;;;;;20.95;10.20;;;;;;;;;;10133744;28;20054;-72
2023/05/24 19:28:15;;;;;;;23.52;11.52;;;;;;;;;;10142458;28;20047;-72
2023/05/24 19:33:12;;;;;;;26.23;11.80;;;;;;;;;;10132403;28;20038;-72
2023/05/24 19:38:08;;;;;;;18.95;10.50;;;;;;;;;;10137620;28;20110;-72
2023/05/24 19:43:04;;;;;;;18.83;10.45;;;;;;;;;;10142742;28;20075;-72
2023/05/24 19:48:01;;;;;;;22.35;11.65;;;;;;;;;;10128054;28;20080;-72
2023/05/24 19:52:57;;;;;;;19.95;10.80;;;;;;;;;;10143376;28;20050;-72
2023/05/24 19:57:54;;;;;;;24.33;11.38;;;;;;;;;;10138900;28;20463;-72
2023/05/24 20:02:50;;;;;;;21.88;12.05;;;;;;;;;;10144091;28;20436;-72
2023/05/24 20:07:46;;;;;;;24.95;12.65;;;;;;;;;;10139669;28;20489;-72
2023/05/24 20:12:43;;;;;;;22.60;12.73;;;;;;;;;;10152586;28;20045;-72
2023/05/24 20:17:40;;;;;;;17.67;13.35;;;;;;;;;;10137542;28;20689;-73
2023/05/24 20:22:38;;;;;;;23.02;13.50;;;;;;;;;;10141032;28;20053;-68
2023/05/24 20:27:35;;;;;;;15.35;12.20;;;;;;;;;;10151287;28;20042;-69
2023/05/24 20:32:31;;;;;;;27.40;13.68;;;;;;;;;;10140917;28;20096;-69
2023/05/24 20:37:27;;;;;;;22.35;12.77;;;;;;;;;;10146553;28;20692;-69
2023/05/24 20:42:24;;;;;;;18.40;14.85;;;;;;;;;;10140216;28;20046;-69
2023/05/24 20:47:20;;;;;;;25.13;14.23;;;;;;;;;;10138724;28;20057;-69
2023/05/24 20:52:17;;;;;;;23.98;13.65;;;;;;;;;;10143324;28;20049;-68
2023/05/24 20:57:13;;;;;;;22.98;14.63;;;;;;;;;;10138457;28;20042;-68
2023/05/24 21:02:10;;;;;;;22.77;13.00;;;;;;;;;;10144656;28;20100;-68
2023/05/24 21:07:06;;;;;;;20.98;12.98;;;;;;;;;;10143845;28;20534;-69
2023/05/24 21:12:03;;;;;;;22.52;13.38;;;;;;;;;;10144331;28;20054;-68
2023/05/24 21:16:59;;;;;;;20.45;13.10;;;;;;;;;;10135483;28;20452;-69
2023/05/24 21:21:56;;;;;;;20.85;11.82;;;;;;;;;;10143710;28;20539;-69
2023/05/24 21:26:52;;;;;;;17.63;12.27;;;;;;;;;;10139296;28;20124;-70
2023/05/24 21:31:48;;;;;;;18.13;11.25;;;;;;;;;;10141325;28;20109;-66
2023/05/24 21:36:45;;;;;;;19.80;12.02;;;;;;;;;;10137573;28;20066;-66
2023/05/24 21:41:41;;;;;;;26.30;11.93;;;;;;;;;;10141091;28;20053;-67
2023/05/24 21:46:37;;;;;;;19.80;10.88;;;;;;;;;;10144934;28;20105;-66
2023/05/24 21:51:35;;;;;;;18.10;10.23;;;;;;;;;;10134681;28;21367;-66
2023/05/24 21:56:32;;;;;;;22.15;12.05;;;;;;;;;;10139898;28;20053;-67
2023/05/24 22:01:28;;;;;;;17.70;11.63;;;;;;;;;;10126725;28;20113;-67
2023/05/24 22:06:25;;;;;;;23.20;12.18;;;;;;;;;;10146789;28;20080;-67
2023/05/24 22:11:21;;;;;;;17.20;12.23;;;;;;;;;;10138295;28;20052;-68
2023/05/24 22:16:17;;;;;;;24.85;12.93;;;;;;;;;;10136676;28;20050;-68
2023/05/24 22:21:14;;;;;;;22.85;14.30;;;;;;;;;;10146615;28;20046;-67
2023/05/24 22:26:11;;;;;;;24.00;12.95;;;;;;;;;;10143540;28;20452;-67
2023/05/24 22:31:07;;;;;;;24.58;12.85;;;;;;;;;;10139775;28;20518;-67
2023/05/24 22:36:04;;;;;;;16.50;12.88;;;;;;;;;;10145256;28;20054;-67
2023/05/24 22:41:00;;;;;;;21.70;14.02;;;;;;;;;;10140473;28;20057;-67
2023/05/24 22:45:57;;;;;;;23.15;13.00;;;;;;;;;;10137977;28;20078;-67
2023/05/24 22:50:56;;;;;;;17.30;11.68;;;;;;;;;;10144047;28;20046;-68
2023/05/24 22:55:52;;;;;;;24.98;11.85;;;;;;;;;;10137887;28;20042;-67
2023/05/24 23:00:49;;;;;;;17.38;12.27;;;;;;;;;;10140386;28;20058;-68
2023/05/24 23:05:45;;;;;;;16.70;10.77;;;;;;;;;;10121248;28;20528;-67
2023/05/24 23:10:44;;;;;;;19.08;12.00;;;;;;;;;;10135241;28;20066;-66
2023/05/24 23:15:41;;;;;;;19.27;12.95;;;;;;;;;;10144716;28;20455;-68
2023/05/24 23:20:40;;;;;;;25.77;12.25;;;;;;;;;;10141726;28;20057;-68
2023/05/24 23:25:37;;;;;;;21.15;12.00;;;;;;;;;;10139617;28;20055;-66
2023/05/24 23:30:33;;;;;;;19.50;11.43;;;;;;;;;;10133535;28;20042;-68
2023/05/24 23:35:29;;;;;;;19.90;12.00;;;;;;;;;;10138687;28;20054;-68
2023/05/24 23:40:28;;;;;;;18.80;10.40;;;;;;;;;;10129964;28;20118;-67
2023/05/24 23:45:24;;;;;;;19.20;12.52;;;;;;;;;;10133304;28;20352;-67
2023/05/24 23:50:21;;;;;;;16.98;10.50;;;;;;;;;;10137124;28;20039;-67
2023/05/24 23:55:17;;;;;;;18.27;12.35;;;;;;;;;;10138765;28;20134;-67
